createdAt,value
2023-03-30T00:03:07.959Z,55.33
2023-03-30T00:07:13.079Z,55.21
2023-03-30T00:11:17.381Z,55.14
2023-03-30T00:15:22.726Z,55.11
2023-03-30T00:19:26.580Z,55.37
2023-03-30T00:23:31.530Z,55.50
2023-03-30T00:27:34.733Z,55.43
2023-03-30T00:31:37.964Z,55.55
2023-03-30T00:35:41.209Z,55.60
2023-03-30T00:39:45.724Z,55.74
2023-03-30T00:44:00.835Z,55.77
2023-03-30T00:48:08.445Z,56.20
2023-03-30T00:52:13.244Z,56.03
2023-03-30T00:56:20.613Z,56.02
2023-03-30T01:00:23.886Z,55.97
2023-03-30T01:04:28.396Z,56.11
2023-03-30T01:08:33.493Z,56.16
2023-03-30T01:12:38.916Z,56.05
2023-03-30T01:16:49.016Z,56.12
2023-03-30T01:21:30.038Z,55.99
2023-03-30T01:25:57.834Z,55.55
2023-03-30T01:30:25.628Z,55.71
2023-03-30T01:35:10.396Z,55.62
2023-03-30T01:39:23.274Z,55.59
2023-03-30T01:43:35.629Z,55.89
2023-03-30T01:47:43.571Z,56.03
2023-03-30T01:51:52.336Z,55.99
2023-03-30T01:56:02.597Z,56.37
2023-03-30T02:00:14.738Z,56.31
2023-03-30T02:04:21.639Z,56.33
2023-03-30T02:08:30.782Z,56.60
2023-03-30T02:12:36.356Z,57.03
2023-03-30T02:16:43.819Z,56.95
2023-03-30T02:20:47.641Z,57.08
2023-03-30T02:24:54.202Z,56.67
2023-03-30T02:28:58.985Z,56.81
2023-03-30T02:33:06.252Z,57.09
2023-03-30T02:37:25.033Z,57.13
2023-03-30T02:41:39.539Z,57.73
2023-03-30T02:45:54.659Z,58.25
2023-03-30T02:50:02.880Z,58.92
2023-03-30T02:54:19.378Z,59.11
2023-03-30T02:58:45.985Z,59.50
2023-03-30T03:02:59.490Z,59.54
2023-03-30T03:07:05.607Z,59.48
2023-03-30T03:11:09.107Z,59.64
2023-03-30T03:15:13.906Z,60.12
2023-03-30T03:19:30.774Z,61.21
2023-03-30T03:23:37.124Z,61.71
2023-03-30T03:27:47.345Z,62.56
2023-03-30T03:31:56.474Z,62.98
2023-03-30T03:36:04.348Z,63.10
2023-03-30T03:40:11.474Z,63.54
2023-03-30T03:44:15.613Z,63.66
2023-03-30T03:48:20.720Z,64.14
2023-03-30T03:52:27.198Z,64.45
2023-03-30T03:56:30.294Z,64.95
2023-03-30T04:00:33.928Z,65.46
2023-03-30T04:04:37.490Z,65.57
2023-03-30T04:08:42.100Z,66.07
2023-03-30T04:13:17.345Z,66.39
2023-03-30T04:17:58.226Z,66.74
2023-03-30T04:22:25.479Z,66.80
2023-03-30T04:26:50.452Z,66.87
2023-03-30T04:31:12.939Z,67.22
2023-03-30T04:35:16.643Z,67.54
2023-03-30T04:39:40.070Z,67.76
2023-03-30T04:44:12.787Z,67.83
2023-03-30T04:48:35.532Z,68.04
2023-03-30T04:53:11.165Z,68.12
2023-03-30T04:57:46.479Z,68.53
2023-03-30T05:02:17.296Z,68.87
2023-03-30T05:06:30.989Z,69.54
2023-03-30T05:10:54.400Z,69.00
2023-03-30T05:15:17.721Z,68.75
2023-03-30T05:19:37.480Z,69.11
2023-03-30T05:24:03.800Z,69.12
2023-03-30T05:28:43.238Z,68.96
2023-03-30T05:33:05.311Z,68.88
2023-03-30T05:37:31.926Z,69.29
2023-03-30T05:41:57.804Z,69.58
2023-03-30T05:46:28.010Z,70.12
2023-03-30T05:50:53.019Z,70.08
2023-03-30T05:55:08.211Z,69.72
2023-03-30T05:59:34.451Z,70.12
2023-03-30T06:04:04.066Z,69.57
2023-03-30T06:08:08.910Z,69.94
2023-03-30T06:12:13.894Z,69.98
2023-03-30T06:16:17.203Z,70.38
2023-03-30T06:20:21.718Z,70.48
2023-03-30T06:24:26.692Z,70.21
2023-03-30T06:28:32.284Z,69.89
2023-03-30T06:32:35.488Z,70.24
2023-03-30T06:37:01.238Z,69.92
2023-03-30T06:41:08.447Z,69.94
2023-03-30T06:45:15.473Z,69.85
2023-03-30T06:49:19.415Z,69.83
2023-03-30T06:53:42.403Z,69.71
2023-03-30T06:57:45.670Z,69.71
2023-03-30T07:01:51.085Z,69.37
2023-03-30T07:06:07.763Z,69.06
2023-03-30T07:10:13.102Z,68.80
2023-03-30T07:14:16.145Z,68.70
2023-03-30T07:18:22.035Z,68.49
2023-03-30T07:22:26.072Z,68.87
2023-03-30T07:26:29.466Z,69.06
2023-03-30T07:30:41.929Z,68.63
2023-03-30T07:34:48.454Z,68.26
2023-03-30T07:38:53.050Z,68.42
2023-03-30T07:42:56.788Z,68.48
2023-03-30T07:47:01.710Z,68.41
2023-03-30T07:51:09.305Z,68.29
2023-03-30T07:55:18.682Z,67.52
2023-03-30T07:59:28.978Z,66.92
2023-03-30T08:03:39.876Z,67.06
2023-03-30T08:07:44.807Z,66.74
2023-03-30T08:11:57.273Z,66.52
2023-03-30T08:16:01.486Z,65.62
2023-03-30T08:20:10.735Z,65.28
2023-03-30T08:24:15.202Z,65.44
2023-03-30T08:28:18.266Z,64.64
2023-03-30T08:32:21.290Z,64.49
2023-03-30T08:36:24.349Z,63.70
2023-03-30T08:40:29.005Z,63.44
2023-03-30T08:44:35.352Z,63.44
2023-03-30T08:48:40.114Z,63.05
2023-03-30T08:52:43.990Z,63.13
2023-03-30T08:56:58.964Z,63.32
2023-03-30T09:01:10.918Z,62.37
2023-03-30T09:05:22.703Z,62.17
2023-03-30T09:09:29.729Z,63.36
2023-03-30T09:13:37.970Z,62.49
2023-03-30T09:17:44.042Z,62.08
2023-03-30T09:21:48.505Z,60.75
2023-03-30T09:26:02.985Z,61.60
2023-03-30T09:30:18.783Z,61.10
2023-03-30T09:34:28.510Z,60.90
2023-03-30T09:38:32.348Z,60.74
2023-03-30T09:42:45.214Z,60.73
2023-03-30T09:46:50.746Z,61.20
2023-03-30T09:50:53.972Z,60.97
2023-03-30T09:54:57.422Z,60.57
2023-03-30T09:59:21.477Z,60.62
2023-03-30T10:03:27.627Z,60.27
2023-03-30T10:07:34.461Z,60.29
2023-03-30T10:11:42.261Z,60.16
2023-03-30T10:15:48.633Z,59.99
2023-03-30T10:20:07.231Z,60.75
2023-03-30T10:24:23.855Z,60.11
2023-03-30T10:28:28.772Z,59.93
2023-03-30T10:32:32.916Z,59.94
2023-03-30T10:36:40.799Z,59.81
2023-03-30T10:40:46.272Z,59.91
2023-03-30T10:44:52.978Z,59.84
2023-03-30T10:49:11.109Z,59.72
2023-03-30T10:53:29.169Z,59.74
2023-03-30T10:57:41.984Z,59.30
2023-03-30T11:01:55.607Z,59.10
2023-03-30T11:06:03.452Z,58.66
2023-03-30T11:10:14.793Z,58.76
2023-03-30T11:14:24.214Z,58.77
2023-03-30T11:18:34.203Z,59.06
2023-03-30T11:22:42.379Z,59.01
2023-03-30T11:26:53.390Z,58.95
2023-03-30T11:31:04.338Z,58.38
2023-03-30T11:35:15.410Z,58.47
2023-03-30T11:39:31.687Z,58.51
2023-03-30T11:43:37.341Z,58.29
2023-03-30T11:48:01.227Z,58.50
2023-03-30T11:52:13.693Z,58.63
2023-03-30T11:56:26.187Z,58.77
2023-03-30T12:00:48.380Z,58.94
2023-03-30T12:04:57.974Z,58.87
2023-03-30T12:09:24.390Z,58.71
2023-03-30T12:13:38.160Z,58.93
2023-03-30T12:17:54.720Z,58.46
2023-03-30T12:22:04.274Z,58.63
2023-03-30T12:26:11.732Z,58.32
2023-03-30T12:30:24.605Z,58.55
2023-03-30T12:34:32.986Z,58.27
2023-03-30T12:38:39.301Z,58.17
2023-03-30T12:42:54.437Z,57.76
2023-03-30T12:47:12.552Z,57.45
2023-03-30T12:51:32.050Z,57.58
2023-03-30T12:55:45.536Z,57.67
2023-03-30T13:00:07.359Z,57.85
2023-03-30T13:04:13.762Z,57.98
2023-03-30T13:08:23.316Z,58.75
2023-03-30T13:12:33.615Z,59.72
2023-03-30T13:17:16.869Z,60.68
2023-03-30T13:21:23.952Z,61.18
2023-03-30T13:25:38.532Z,61.45
2023-03-30T13:29:42.484Z,61.85
2023-03-30T13:33:51.176Z,61.94
2023-03-30T13:38:12.820Z,61.95
2023-03-30T13:42:29.785Z,62.18
2023-03-30T13:46:39.343Z,62.06
2023-03-30T13:50:49.513Z,62.13
2023-03-30T13:54:53.317Z,61.77
2023-03-30T13:59:06.239Z,61.85
2023-03-30T14:03:32.414Z,62.00
2023-03-30T14:07:43.457Z,62.51
2023-03-30T14:11:50.276Z,62.49
2023-03-30T14:15:56.412Z,63.38
2023-03-30T14:20:13.245Z,64.36
2023-03-30T14:24:18.816Z,63.63
2023-03-30T14:28:22.515Z,64.07
2023-03-30T14:32:27.215Z,64.31
2023-03-30T14:36:30.642Z,64.37
2023-03-30T14:40:39.139Z,65.02
2023-03-30T14:44:42.657Z,65.11
2023-03-30T14:48:50.715Z,65.13
2023-03-30T14:52:54.632Z,65.36
2023-03-30T14:57:00.077Z,65.52
2023-03-30T15:01:09.811Z,65.58
2023-03-30T15:05:17.998Z,65.37
2023-03-30T15:09:22.884Z,65.79
2023-03-30T15:13:31.937Z,65.78
2023-03-30T15:17:36.561Z,65.45
2023-03-30T15:21:41.754Z,65.01
2023-03-30T15:25:45.605Z,65.04
2023-03-30T15:29:49.364Z,65.29
2023-03-30T15:33:54.130Z,65.39
2023-03-30T15:38:00.343Z,65.55
2023-03-30T15:42:06.193Z,66.03
2023-03-30T15:46:14.656Z,66.21
2023-03-30T15:50:20.520Z,66.56
2023-03-30T15:54:31.397Z,66.60
2023-03-30T15:58:35.847Z,66.89
2023-03-30T16:02:41.057Z,67.31
2023-03-30T16:06:46.673Z,67.64
2023-03-30T16:10:55.350Z,68.04
2023-03-30T16:14:59.631Z,68.40
2023-03-30T16:19:02.781Z,68.41
2023-03-30T16:23:08.434Z,68.56
2023-03-30T16:27:14.400Z,69.20
2023-03-30T16:31:20.792Z,69.38
2023-03-30T16:35:23.933Z,69.78
2023-03-30T16:39:28.930Z,69.97
2023-03-30T16:43:33.532Z,70.03
2023-03-30T16:47:38.127Z,70.34
2023-03-30T16:51:41.578Z,70.53
2023-03-30T16:55:44.889Z,70.83
2023-03-30T16:59:49.433Z,71.18
2023-03-30T17:03:52.576Z,71.43
2023-03-30T17:07:56.240Z,71.65
2023-03-30T17:11:59.301Z,71.93
2023-03-30T17:16:03.909Z,72.13
2023-03-30T17:20:22.368Z,72.67
2023-03-30T17:24:25.518Z,73.33
2023-03-30T17:28:30.287Z,73.18
2023-03-30T17:32:34.726Z,73.57
2023-03-30T17:36:37.953Z,73.92
2023-03-30T17:40:41.009Z,74.43
2023-03-30T17:44:44.750Z,74.75
2023-03-30T17:48:51.213Z,75.11
2023-03-30T17:52:55.614Z,74.62
2023-03-30T17:56:58.632Z,74.46
2023-03-30T18:01:04.229Z,73.88
2023-03-30T18:05:09.926Z,73.48
2023-03-30T18:09:16.210Z,73.26
2023-03-30T18:13:20.128Z,73.31
2023-03-30T18:17:25.213Z,73.11
2023-03-30T18:21:29.655Z,72.89
2023-03-30T18:25:33.130Z,72.68
2023-03-30T18:29:37.769Z,72.17
2023-03-30T18:33:40.913Z,72.33
2023-03-30T18:37:45.937Z,71.78
2023-03-30T18:41:49.353Z,71.46
2023-03-30T18:45:52.785Z,71.29
2023-03-30T18:49:55.944Z,70.74
2023-03-30T18:54:00.356Z,70.87
2023-03-30T18:58:06.544Z,70.65
2023-03-30T19:02:10.499Z,70.08
2023-03-30T19:06:18.433Z,69.88
2023-03-30T19:10:26.711Z,69.63
2023-03-30T19:14:29.920Z,69.40
2023-03-30T19:18:33.083Z,69.41
2023-03-30T19:22:36.217Z,69.23
2023-03-30T19:26:41.031Z,69.09
2023-03-30T19:30:44.615Z,69.32
2023-03-30T19:34:48.112Z,68.94
2023-03-30T19:38:51.232Z,69.31
2023-03-30T19:42:56.059Z,68.75
2023-03-30T19:47:03.921Z,69.04
2023-03-30T19:51:07.385Z,69.05
2023-03-30T19:55:11.487Z,68.76
2023-03-30T19:59:16.868Z,68.78
2023-03-30T20:03:21.304Z,68.98
2023-03-30T20:07:24.627Z,68.55
2023-03-30T20:11:27.853Z,68.55
2023-03-30T20:15:32.512Z,68.76
2023-03-30T20:19:35.733Z,68.57
2023-03-30T20:23:38.779Z,68.44
2023-03-30T20:27:41.846Z,68.27
2023-03-30T20:31:46.482Z,68.21
2023-03-30T20:35:51.978Z,67.95
2023-03-30T20:40:03.547Z,67.91
2023-03-30T20:44:11.321Z,67.55
2023-03-30T20:48:26.433Z,67.29
2023-03-30T20:52:30.765Z,67.39
2023-03-30T20:56:33.932Z,66.92
2023-03-30T21:00:37.033Z,66.91
2023-03-30T21:04:43.239Z,66.93
2023-03-30T21:08:46.620Z,66.98
2023-03-30T21:12:49.736Z,66.88
2023-03-30T21:16:52.835Z,66.27
2023-03-30T21:20:57.872Z,66.11
2023-03-30T21:25:01.264Z,65.95
2023-03-30T21:29:04.888Z,65.98
2023-03-30T21:33:08.492Z,65.67
2023-03-30T21:37:13.198Z,65.70
2023-03-30T21:41:17.586Z,65.65
2023-03-30T21:45:20.850Z,66.12
2023-03-30T21:49:24.119Z,66.09
2023-03-30T21:53:30.318Z,66.41
2023-03-30T21:57:33.600Z,66.70
2023-03-30T22:01:36.756Z,67.36
2023-03-30T22:05:40.393Z,67.20
2023-03-30T22:09:45.001Z,67.13
2023-03-30T22:13:48.922Z,66.78
2023-03-30T22:17:52.169Z,66.22
2023-03-30T22:21:55.699Z,65.99
2023-03-30T22:26:00.990Z,66.09
2023-03-30T22:30:04.961Z,66.68
2023-03-30T22:34:08.565Z,67.23
2023-03-30T22:38:12.265Z,67.83
2023-03-30T22:42:16.678Z,68.25
2023-03-30T22:46:19.752Z,68.11
2023-03-30T22:50:22.993Z,68.18
2023-03-30T22:54:26.319Z,68.79
2023-03-30T22:58:30.710Z,68.65
2023-03-30T23:02:33.808Z,68.74
2023-03-30T23:06:37.301Z,69.01
2023-03-30T23:10:43.814Z,68.87
2023-03-30T23:14:48.276Z,69.14
2023-03-30T23:18:51.951Z,69.30
2023-03-30T23:22:55.124Z,68.86
2023-03-30T23:26:58.179Z,68.91
2023-03-30T23:31:09.137Z,68.99
2023-03-30T23:35:12.221Z,69.05
2023-03-30T23:39:15.244Z,69.39
2023-03-30T23:43:18.270Z,69.06
2023-03-30T23:47:22.672Z,69.03
2023-03-30T23:51:25.808Z,69.03
2023-03-30T23:55:29.175Z,68.87
2023-03-30T23:59:32.173Z,68.81
